createdAt,value
2022-09-20T00:01:28.081Z,15.03
2022-09-20T00:03:58.755Z,15.04
2022-09-20T00:06:30.614Z,15.04
2022-09-20T00:08:57.688Z,15.04
2022-09-20T00:11:26.988Z,14.95
2022-09-20T00:13:58.156Z,14.92
2022-09-20T00:16:27.693Z,14.90
2022-09-20T00:18:58.662Z,14.90
2022-09-20T00:21:28.220Z,14.89
2022-09-20T00:23:56.720Z,14.86
2022-09-20T00:26:23.745Z,14.83
2022-09-20T00:28:51.683Z,14.78
2022-09-20T00:31:18.509Z,14.75
2022-09-20T00:34:03.325Z,14.71
2022-09-20T00:36:30.077Z,14.68
2022-09-20T00:38:57.536Z,14.61
2022-09-20T00:41:24.419Z,14.56
2022-09-20T00:43:51.651Z,14.53
2022-09-20T00:46:34.547Z,14.48
2022-09-20T00:49:18.113Z,14.47
2022-09-20T00:51:52.051Z,14.43
2022-09-20T00:54:20.815Z,14.44
2022-09-20T00:56:48.444Z,14.47
2022-09-20T00:59:16.528Z,14.47
2022-09-20T01:01:46.205Z,14.51
2022-09-20T01:04:16.068Z,14.52
2022-09-20T01:06:45.403Z,14.55
2022-09-20T01:09:15.082Z,14.56
2022-09-20T01:11:41.949Z,14.57
2022-09-20T01:14:09.088Z,14.59
2022-09-20T01:16:37.394Z,14.60
2022-09-20T01:19:23.485Z,14.61
2022-09-20T01:21:53.444Z,14.61
2022-09-20T01:24:31.160Z,14.62
2022-09-20T01:27:00.294Z,14.63
2022-09-20T01:29:58.292Z,14.65
2022-09-20T01:32:36.010Z,14.60
2022-09-20T01:35:02.993Z,14.59
2022-09-20T01:37:47.186Z,14.57
2022-09-20T01:40:24.024Z,14.56
2022-09-20T01:43:15.046Z,14.56
2022-09-20T01:45:48.214Z,14.55
2022-09-20T01:48:37.527Z,14.52
2022-09-20T01:51:25.345Z,14.53
2022-09-20T01:54:19.594Z,14.52
2022-09-20T01:57:27.147Z,14.50
2022-09-20T02:00:08.416Z,14.49
2022-09-20T02:03:12.323Z,14.47
2022-09-20T02:06:09.611Z,14.42
2022-09-20T02:08:44.845Z,14.38
2022-09-20T02:11:15.009Z,14.35
2022-09-20T02:13:50.922Z,14.33
2022-09-20T02:16:38.529Z,14.30
2022-09-20T02:19:07.756Z,14.24
2022-09-20T02:21:43.212Z,14.20
2022-09-20T02:24:30.070Z,14.19
2022-09-20T02:26:59.535Z,14.15
2022-09-20T02:29:57.127Z,14.11
2022-09-20T02:32:46.001Z,14.08
2022-09-20T02:35:25.574Z,14.07
2022-09-20T02:38:37.512Z,14.07
2022-09-20T02:41:41.512Z,14.06
2022-09-20T02:44:39.049Z,14.04
2022-09-20T02:47:36.670Z,13.96
2022-09-20T02:50:24.910Z,13.88
2022-09-20T02:53:45.405Z,13.85
2022-09-20T02:56:33.799Z,13.78
2022-09-20T02:59:33.756Z,13.73
2022-09-20T03:02:19.254Z,13.72
2022-09-20T03:05:07.361Z,13.73
2022-09-20T03:07:52.497Z,13.76
2022-09-20T03:10:38.682Z,13.76
2022-09-20T03:13:10.931Z,13.79
2022-09-20T03:16:09.159Z,13.81
2022-09-20T03:18:54.591Z,13.79
2022-09-20T03:21:42.195Z,13.76
2022-09-20T03:24:34.455Z,13.75
2022-09-20T03:27:07.513Z,13.79
2022-09-20T03:29:41.576Z,13.77
2022-09-20T03:32:25.001Z,13.74
2022-09-20T03:35:07.933Z,13.73
2022-09-20T03:38:15.384Z,13.72
2022-09-20T03:40:59.751Z,13.70
2022-09-20T03:43:43.700Z,13.69
2022-09-20T03:46:25.299Z,13.67
2022-09-20T03:49:06.000Z,13.66
2022-09-20T03:51:41.416Z,13.64
2022-09-20T03:54:38.105Z,13.63
2022-09-20T03:57:34.497Z,13.61
2022-09-20T04:00:24.719Z,13.59
2022-09-20T04:03:12.876Z,13.57
2022-09-20T04:05:50.856Z,13.59
2022-09-20T04:08:26.220Z,13.60
2022-09-20T04:11:25.017Z,13.61
2022-09-20T04:14:32.985Z,13.56
2022-09-20T04:17:46.290Z,13.53
2022-09-20T04:20:21.236Z,13.47
2022-09-20T04:22:52.027Z,13.45
2022-09-20T04:25:23.752Z,13.40
2022-09-20T04:27:59.943Z,13.38
2022-09-20T04:30:37.437Z,13.36
2022-09-20T04:33:12.972Z,13.28
2022-09-20T04:36:10.202Z,13.30
2022-09-20T04:38:37.252Z,13.25
2022-09-20T04:41:21.921Z,13.20
2022-09-20T04:44:12.739Z,13.15
2022-09-20T04:47:16.473Z,13.08
2022-09-20T04:50:01.552Z,13.06
2022-09-20T04:52:39.190Z,13.01
2022-09-20T04:55:32.866Z,12.97
2022-09-20T04:58:18.913Z,12.93
2022-09-20T05:01:22.098Z,12.88
2022-09-20T05:04:26.036Z,12.80
2022-09-20T05:07:30.312Z,12.75
2022-09-20T05:10:36.609Z,12.74
2022-09-20T05:13:43.275Z,12.71
2022-09-20T05:16:29.643Z,12.65
2022-09-20T05:19:07.980Z,12.61
2022-09-20T05:21:55.434Z,12.60
2022-09-20T05:24:42.574Z,12.60
2022-09-20T05:27:19.610Z,12.54
2022-09-20T05:30:26.046Z,12.51
2022-09-20T05:33:02.009Z,12.46
2022-09-20T05:35:40.750Z,12.39
2022-09-20T05:38:45.433Z,12.34
2022-09-20T05:41:23.674Z,12.29
2022-09-20T05:44:08.280Z,12.26
2022-09-20T05:46:47.941Z,12.29
2022-09-20T05:49:38.502Z,12.26
2022-09-20T05:52:20.600Z,12.23
2022-09-20T05:55:28.295Z,12.21
2022-09-20T05:58:23.106Z,12.20
2022-09-20T06:01:02.650Z,12.14
2022-09-20T06:03:41.778Z,12.20
2022-09-20T06:06:39.652Z,12.24
2022-09-20T06:09:09.167Z,12.30
2022-09-20T06:12:26.084Z,12.35
2022-09-20T06:15:14.056Z,12.39
2022-09-20T06:18:01.701Z,12.43
2022-09-20T06:21:12.829Z,12.51
2022-09-20T06:23:39.688Z,12.60
2022-09-20T06:26:17.271Z,12.63
2022-09-20T06:28:54.148Z,12.74
2022-09-20T06:31:22.847Z,12.90
2022-09-20T06:34:11.146Z,13.22
2022-09-20T06:37:03.501Z,13.31
2022-09-20T06:39:59.514Z,13.36
2022-09-20T06:42:27.254Z,13.37
2022-09-20T06:44:55.589Z,13.45
2022-09-20T06:47:23.301Z,13.47
2022-09-20T06:49:50.454Z,13.56
2022-09-20T06:52:22.617Z,13.63
2022-09-20T06:54:54.099Z,13.75
2022-09-20T06:57:40.046Z,13.83
2022-09-20T07:00:10.102Z,13.91
2022-09-20T07:02:36.465Z,14.05
2022-09-20T07:05:02.959Z,14.19
2022-09-20T07:07:29.285Z,14.30
2022-09-20T07:09:57.958Z,14.42
2022-09-20T07:12:25.530Z,14.50
2022-09-20T07:14:51.978Z,14.57
2022-09-20T07:17:18.480Z,14.61
2022-09-20T07:19:44.822Z,14.61
2022-09-20T07:22:11.289Z,14.60
2022-09-20T07:24:37.664Z,14.59
2022-09-20T07:27:05.363Z,14.49
2022-09-20T07:29:31.765Z,14.39
2022-09-20T07:31:58.600Z,14.30
2022-09-20T07:34:25.629Z,14.18
2022-09-20T07:36:52.229Z,14.14
2022-09-20T07:39:18.787Z,14.11
2022-09-20T07:41:48.527Z,14.10
2022-09-20T07:44:21.490Z,14.12
2022-09-20T07:46:49.381Z,14.10
2022-09-20T07:49:15.928Z,14.14
2022-09-20T07:51:42.467Z,14.10
2022-09-20T07:54:09.193Z,14.12
2022-09-20T07:56:35.554Z,14.13
2022-09-20T07:59:01.928Z,14.21
2022-09-20T08:01:28.376Z,14.34
2022-09-20T08:03:55.279Z,14.55
2022-09-20T08:06:21.866Z,14.90
2022-09-20T08:08:49.273Z,15.15
2022-09-20T08:11:19.047Z,15.56
2022-09-20T08:14:07.099Z,15.75
2022-09-20T08:16:39.265Z,15.80
2022-09-20T08:19:05.797Z,15.76
2022-09-20T08:21:34.629Z,15.68
2022-09-20T08:24:01.837Z,15.65
2022-09-20T08:26:31.087Z,15.64
2022-09-20T08:28:59.773Z,15.65
2022-09-20T08:31:32.631Z,15.68
2022-09-20T08:34:02.924Z,15.70
2022-09-20T08:36:36.106Z,15.83
2022-09-20T08:42:13.108Z,15.90
2022-09-20T08:45:02.422Z,15.95
2022-09-20T08:47:35.665Z,15.99
2022-09-20T08:50:09.870Z,16.03
2022-09-20T08:52:40.035Z,16.08
2022-09-20T08:55:22.851Z,16.07
2022-09-20T08:57:52.982Z,16.05
2022-09-20T09:00:22.404Z,16.05
2022-09-20T09:02:51.699Z,16.03
2022-09-20T09:05:26.940Z,15.97
2022-09-20T09:07:53.402Z,15.88
2022-09-20T09:10:21.002Z,15.81
2022-09-20T09:12:48.991Z,15.82
2022-09-20T09:15:29.183Z,15.85
2022-09-20T09:17:56.138Z,15.86
2022-09-20T09:20:24.275Z,15.86
2022-09-20T09:23:09.374Z,15.90
2022-09-20T09:25:41.994Z,15.89
2022-09-20T09:28:08.282Z,15.84
2022-09-20T09:30:38.820Z,15.64
2022-09-20T09:33:14.271Z,15.43
2022-09-20T09:35:40.996Z,15.22
2022-09-20T09:38:24.076Z,15.17
2022-09-20T09:40:55.098Z,15.13
2022-09-20T09:43:30.063Z,15.13
2022-09-20T09:46:17.706Z,15.18
2022-09-20T09:48:50.024Z,15.40
2022-09-20T09:51:18.753Z,15.59
2022-09-20T09:53:47.296Z,15.67
2022-09-20T09:56:35.132Z,15.72
2022-09-20T09:59:25.205Z,15.76
2022-09-20T10:02:12.808Z,15.73
2022-09-20T10:04:57.393Z,15.78
2022-09-20T10:07:59.677Z,15.80
2022-09-20T10:10:32.395Z,15.84
2022-09-20T10:13:04.776Z,15.89
2022-09-20T10:15:52.591Z,15.96
2022-09-20T10:18:37.311Z,16.05
2022-09-20T10:21:28.599Z,16.09
2022-09-20T10:24:04.210Z,16.23
2022-09-20T10:26:49.414Z,16.29
2022-09-20T10:29:53.451Z,16.35
2022-09-20T10:32:31.662Z,16.48
2022-09-20T10:35:03.223Z,16.57
2022-09-20T10:37:49.053Z,16.72
2022-09-20T10:40:22.713Z,16.82
2022-09-20T10:43:16.958Z,16.88
2022-09-20T10:46:33.689Z,16.97
2022-09-20T10:49:16.632Z,16.95
2022-09-20T10:52:21.511Z,17.08
2022-09-20T10:55:06.428Z,17.26
2022-09-20T10:57:51.260Z,17.49
2022-09-20T11:00:23.789Z,17.63
2022-09-20T11:03:18.021Z,17.74
2022-09-20T11:06:12.310Z,17.73
2022-09-20T11:08:42.618Z,17.67
2022-09-20T11:11:16.983Z,17.68
2022-09-20T11:14:06.264Z,17.74
2022-09-20T11:17:12.582Z,17.80
2022-09-20T11:20:04.778Z,17.87
2022-09-20T11:23:21.305Z,18.01
2022-09-20T11:25:56.777Z,18.10
2022-09-20T11:28:36.604Z,18.17
2022-09-20T11:31:24.476Z,18.29
2022-09-20T11:34:00.448Z,18.32
2022-09-20T11:36:34.164Z,18.36
2022-09-20T11:39:10.693Z,18.32
2022-09-20T11:41:37.580Z,18.39
2022-09-20T11:44:12.450Z,18.44
2022-09-20T11:46:47.811Z,18.54
2022-09-20T11:49:21.103Z,18.62
2022-09-20T11:52:21.043Z,18.71
2022-09-20T11:55:05.476Z,18.72
2022-09-20T11:57:32.488Z,18.75
2022-09-20T12:00:05.004Z,18.75
2022-09-20T12:02:45.024Z,18.63
2022-09-20T12:05:25.432Z,18.56
2022-09-20T12:07:55.392Z,18.72
2022-09-20T12:10:25.648Z,18.89
2022-09-20T12:12:59.494Z,18.90
2022-09-20T12:15:40.027Z,18.90
2022-09-20T12:18:15.570Z,18.84
2022-09-20T12:20:45.015Z,18.77
2022-09-20T12:23:40.448Z,18.67
2022-09-20T12:26:13.449Z,18.59
2022-09-20T12:28:40.867Z,18.50
2022-09-20T12:31:33.425Z,18.33
2022-09-20T12:34:12.108Z,18.22
2022-09-20T12:37:05.402Z,18.13
2022-09-20T12:39:34.240Z,18.02
2022-09-20T12:42:06.298Z,17.97
2022-09-20T12:44:47.200Z,17.97
2022-09-20T12:47:13.467Z,18.01
2022-09-20T12:50:04.913Z,18.02
2022-09-20T12:53:00.533Z,18.04
2022-09-20T12:55:27.069Z,18.01
2022-09-20T12:58:03.644Z,17.98
2022-09-20T13:00:40.736Z,17.93
2022-09-20T13:03:11.140Z,17.90
2022-09-20T13:05:45.709Z,17.82
2022-09-20T13:08:13.152Z,17.77
2022-09-20T13:10:47.449Z,17.75
2022-09-20T13:13:39.505Z,17.74
2022-09-20T13:16:06.544Z,17.69
2022-09-20T13:18:35.294Z,17.59
2022-09-20T13:21:06.976Z,17.63
2022-09-20T13:23:45.345Z,17.65
2022-09-20T13:26:13.167Z,17.67
2022-09-20T13:28:49.030Z,17.63
2022-09-20T13:31:21.355Z,17.69
2022-09-20T13:33:48.415Z,17.75
2022-09-20T13:36:15.797Z,17.84
2022-09-20T13:38:43.229Z,17.88
2022-09-20T13:41:10.767Z,17.89
2022-09-20T13:43:41.194Z,17.92
2022-09-20T13:46:10.577Z,17.94
2022-09-20T13:48:40.695Z,17.94
2022-09-20T13:51:39.713Z,17.95
2022-09-20T13:54:28.450Z,17.90
2022-09-20T13:57:02.012Z,17.85
2022-09-20T13:59:33.980Z,17.85
2022-09-20T14:02:00.690Z,17.84
2022-09-20T14:04:32.433Z,17.87
2022-09-20T14:07:00.680Z,17.88
2022-09-20T14:09:35.036Z,17.96
2022-09-20T14:12:04.538Z,18.04
2022-09-20T14:14:33.181Z,18.15
2022-09-20T14:17:01.680Z,18.20
2022-09-20T14:19:37.343Z,18.27
2022-09-20T14:22:04.984Z,18.35
2022-09-20T14:24:35.740Z,18.40
2022-09-20T14:27:19.402Z,18.32
2022-09-20T14:29:48.920Z,18.30
2022-09-20T14:32:18.486Z,18.29
2022-09-20T14:34:58.832Z,18.23
2022-09-20T14:37:27.098Z,18.16
2022-09-20T14:39:56.767Z,18.11
2022-09-20T14:42:36.798Z,18.05
2022-09-20T14:45:05.828Z,17.95
2022-09-20T14:47:52.527Z,17.96
2022-09-20T14:50:34.189Z,18.00
2022-09-20T14:53:21.879Z,18.00
2022-09-20T14:56:10.335Z,18.04
2022-09-20T14:59:05.487Z,17.95
2022-09-20T15:01:33.187Z,18.01
2022-09-20T15:04:07.555Z,17.99
2022-09-20T15:06:39.911Z,17.98
2022-09-20T15:09:09.072Z,17.96
2022-09-20T15:11:35.594Z,17.98
2022-09-20T15:14:01.947Z,17.96
2022-09-20T15:16:29.470Z,17.94
2022-09-20T15:18:56.291Z,17.86
2022-09-20T15:21:22.714Z,17.79
2022-09-20T15:23:49.126Z,17.77
2022-09-20T15:26:16.583Z,17.75
2022-09-20T15:28:43.059Z,17.72
2022-09-20T15:31:10.866Z,17.71
2022-09-20T15:33:37.923Z,17.67
2022-09-20T15:36:05.489Z,17.62
2022-09-20T15:38:32.136Z,17.61
2022-09-20T15:41:03.360Z,17.59
2022-09-20T15:43:30.948Z,17.60
2022-09-20T15:46:30.900Z,17.66
2022-09-20T15:49:00.705Z,17.67
2022-09-20T15:51:28.448Z,17.72
2022-09-20T15:53:57.367Z,17.78
2022-09-20T15:56:30.231Z,17.82
2022-09-20T15:58:59.397Z,17.85
2022-09-20T16:01:38.070Z,17.87
2022-09-20T16:04:06.729Z,17.86
2022-09-20T16:06:34.244Z,17.83
2022-09-20T16:09:02.216Z,17.87
2022-09-20T16:11:28.848Z,17.84
2022-09-20T16:14:00.002Z,17.84
2022-09-20T16:16:36.114Z,17.80
2022-09-20T16:19:17.748Z,17.77
2022-09-20T16:21:57.677Z,17.74
2022-09-20T16:24:33.519Z,17.70
2022-09-20T16:27:01.785Z,17.65
2022-09-20T16:29:30.030Z,17.62
2022-09-20T16:31:58.728Z,17.57
2022-09-20T16:34:29.813Z,17.55
2022-09-20T16:37:06.697Z,17.54
2022-09-20T16:39:33.421Z,17.50
2022-09-20T16:42:04.427Z,17.47
2022-09-20T16:44:42.607Z,17.43
2022-09-20T16:47:13.094Z,17.38
2022-09-20T16:49:39.638Z,17.35
2022-09-20T16:52:08.814Z,17.30
2022-09-20T16:54:35.493Z,17.28
2022-09-20T16:57:02.550Z,17.26
2022-09-20T16:59:29.180Z,17.26
2022-09-20T17:01:55.741Z,17.22
2022-09-20T17:04:22.220Z,17.19
2022-09-20T17:06:50.209Z,17.17
2022-09-20T17:09:16.922Z,17.15
2022-09-20T17:11:47.089Z,17.10
2022-09-20T17:14:16.413Z,17.05
2022-09-20T17:16:43.653Z,17.01
2022-09-20T17:19:12.927Z,16.97
2022-09-20T17:21:43.601Z,16.94
2022-09-20T17:24:10.233Z,16.90
2022-09-20T17:26:43.512Z,16.85
2022-09-20T17:29:13.717Z,16.79
2022-09-20T17:31:43.977Z,16.74
2022-09-20T17:34:12.074Z,16.68
2022-09-20T17:36:41.830Z,16.61
2022-09-20T17:39:12.889Z,16.54
2022-09-20T17:41:41.168Z,16.50
2022-09-20T17:44:11.866Z,16.45
2022-09-20T17:46:40.422Z,16.41
2022-09-20T17:49:09.936Z,16.37
2022-09-20T17:51:40.675Z,16.30
2022-09-20T17:54:08.341Z,16.26
2022-09-20T17:56:35.372Z,16.21
2022-09-20T17:59:04.416Z,16.15
2022-09-20T18:01:32.655Z,16.09
2022-09-20T18:04:01.263Z,16.03
2022-09-20T18:06:33.704Z,16.01
2022-09-20T18:09:02.815Z,15.98
2022-09-20T18:11:34.356Z,15.93
2022-09-20T18:14:05.200Z,15.90
2022-09-20T18:16:33.669Z,15.88
2022-09-20T18:19:00.527Z,15.85
2022-09-20T18:21:29.818Z,15.82
2022-09-20T18:23:58.189Z,15.76
2022-09-20T18:26:27.990Z,15.66
2022-09-20T18:29:16.586Z,15.57
2022-09-20T18:31:46.337Z,15.48
2022-09-20T18:34:18.478Z,15.41
2022-09-20T18:36:54.060Z,15.39
2022-09-20T18:39:25.415Z,15.35
2022-09-20T18:41:53.207Z,15.32
2022-09-20T18:44:23.438Z,15.26
2022-09-20T18:46:52.905Z,15.18
2022-09-20T18:49:21.470Z,15.11
2022-09-20T18:51:49.120Z,15.05
2022-09-20T18:54:16.113Z,15.02
2022-09-20T18:56:47.259Z,14.99
2022-09-20T18:59:22.581Z,14.92
2022-09-20T19:01:55.210Z,14.91
2022-09-20T19:04:51.753Z,14.92
2022-09-20T19:07:27.062Z,14.89
2022-09-20T19:10:03.189Z,14.87
2022-09-20T19:12:57.787Z,14.85
2022-09-20T19:15:38.748Z,14.80
2022-09-20T19:18:39.076Z,14.83
2022-09-20T19:21:45.438Z,14.81
2022-09-20T19:24:27.892Z,14.82
2022-09-20T19:26:56.789Z,14.86
2022-09-20T19:29:26.666Z,14.91
2022-09-20T19:31:56.003Z,14.97
2022-09-20T19:34:26.646Z,14.98
2022-09-20T19:37:18.423Z,14.98
2022-09-20T19:39:56.946Z,14.99
2022-09-20T19:42:36.333Z,15.00
2022-09-20T19:45:20.477Z,15.04
2022-09-20T19:48:32.079Z,15.05
2022-09-20T19:51:03.811Z,15.03
2022-09-20T19:53:30.649Z,15.02
2022-09-20T19:56:03.162Z,15.01
2022-09-20T19:58:29.877Z,14.99
2022-09-20T20:00:57.904Z,14.97
2022-09-20T20:03:26.293Z,14.96
2022-09-20T20:06:16.785Z,14.94
2022-09-20T20:08:52.673Z,14.94
2022-09-20T20:11:45.163Z,14.97
2022-09-20T20:14:35.218Z,14.99
2022-09-20T20:17:16.977Z,14.99
2022-09-20T20:19:53.677Z,15.00
2022-09-20T20:23:00.785Z,15.01
2022-09-20T20:25:51.603Z,15.02
2022-09-20T20:28:17.919Z,15.03
2022-09-20T20:30:44.502Z,15.05
2022-09-20T20:33:15.867Z,15.04
2022-09-20T20:35:42.429Z,15.03
2022-09-20T20:38:10.677Z,15.00
2022-09-20T20:40:37.789Z,14.96
2022-09-20T20:43:06.077Z,14.93
2022-09-20T20:45:35.362Z,14.90
2022-09-20T20:48:02.026Z,14.89
2022-09-20T20:50:30.735Z,14.89
2022-09-20T20:52:57.321Z,14.88
2022-09-20T20:55:24.578Z,14.90
2022-09-20T20:57:58.410Z,14.91
2022-09-20T21:00:28.397Z,14.91
2022-09-20T21:03:02.679Z,14.92
2022-09-20T21:05:29.572Z,14.91
2022-09-20T21:07:58.965Z,14.94
2022-09-20T21:10:25.928Z,14.98
2022-09-20T21:12:58.168Z,14.95
2022-09-20T21:15:24.656Z,14.94
2022-09-20T21:17:54.907Z,14.94
2022-09-20T21:20:24.147Z,14.93
2022-09-20T21:22:50.584Z,14.94
2022-09-20T21:25:17.079Z,14.91
2022-09-20T21:27:43.604Z,14.89
2022-09-20T21:30:11.479Z,14.87
2022-09-20T21:32:37.936Z,14.79
2022-09-20T21:35:04.919Z,14.77
2022-09-20T21:37:31.233Z,14.73
2022-09-20T21:39:57.783Z,14.68
2022-09-20T21:42:27.119Z,14.67
2022-09-20T21:44:53.466Z,14.66
2022-09-20T21:47:20.520Z,14.63
2022-09-20T21:49:47.573Z,14.62
2022-09-20T21:52:14.239Z,14.60
2022-09-20T21:54:40.636Z,14.59
2022-09-20T21:57:07.367Z,14.54
2022-09-20T21:59:33.723Z,14.52
2022-09-20T22:02:00.154Z,14.52
2022-09-20T22:04:29.262Z,14.49
2022-09-20T22:06:55.664Z,14.44
2022-09-20T22:09:24.045Z,14.41
2022-09-20T22:11:50.904Z,14.37
2022-09-20T22:14:19.489Z,14.32
2022-09-20T22:16:47.474Z,14.29
2022-09-20T22:19:16.801Z,14.25
2022-09-20T22:21:45.728Z,14.19
2022-09-20T22:24:14.331Z,14.11
2022-09-20T22:26:42.998Z,14.06
2022-09-20T22:29:09.824Z,14.01
2022-09-20T22:31:41.350Z,13.93
2022-09-20T22:34:13.156Z,13.86
2022-09-20T22:36:41.511Z,13.81
2022-09-20T22:39:10.570Z,13.72
2022-09-20T22:41:39.530Z,13.66
2022-09-20T22:44:06.186Z,13.59
2022-09-20T22:46:33.769Z,13.51
2022-09-20T22:49:00.553Z,13.46
2022-09-20T22:51:29.718Z,13.41
2022-09-20T22:53:56.480Z,13.35
2022-09-20T22:56:25.628Z,13.29
2022-09-20T22:58:55.130Z,13.27
2022-09-20T23:01:24.348Z,13.23
2022-09-20T23:04:06.289Z,13.17
2022-09-20T23:06:41.151Z,13.11
2022-09-20T23:09:10.173Z,13.06
2022-09-20T23:11:37.830Z,13.00
2022-09-20T23:14:05.951Z,12.95
2022-09-20T23:16:35.666Z,12.88
2022-09-20T23:19:03.627Z,12.83
2022-09-20T23:21:31.037Z,12.79
2022-09-20T23:24:02.996Z,12.74
2022-09-20T23:26:31.627Z,12.71
2022-09-20T23:29:02.242Z,12.70
2022-09-20T23:31:32.545Z,12.70
2022-09-20T23:34:03.408Z,12.68
2022-09-20T23:36:34.858Z,12.65
2022-09-20T23:39:03.973Z,12.64
2022-09-20T23:41:31.034Z,12.63
2022-09-20T23:43:57.810Z,12.60
2022-09-20T23:46:26.257Z,12.58
2022-09-20T23:48:53.227Z,12.54
2022-09-20T23:51:23.818Z,12.48
2022-09-20T23:53:52.078Z,12.48
2022-09-20T23:56:19.837Z,12.48
2022-09-20T23:58:46.820Z,12.47
